Home > Products > Valid Products > TAF

000
FTUS41 KLWX 202000 AAA
TAFDCA
TAF AMD
KDCA 202051Z 2021/2118 20006KT P6SM SCT250
     FM210000 VRB03KT P6SM FEW250
     FM210800 00000KT 5SM BR SCT250
     FM211300 VRB03KT P6SM SCT200=



000
FTUS41 KLWX 202000 AAA
TAFIAD
TAF AMD
KIAD 202051Z 2021/2124 15009KT P6SM SCT250
     FM210000 VRB03KT P6SM FEW250
     FM210700 00000KT 3SM BR SCT250
     FM211400 VRB03KT P6SM SCT200
     FM211800 24006KT P6SM BKN050=



000
FTUS41 KLWX 202000 AAA
TAFBWI
TAF AMD
KBWI 202051Z 2021/2124 17005KT P6SM SCT200
     FM210000 VRB03KT P6SM SCT250
     FM210800 00000KT 3SM BR BKN250
     FM211400 00000KT P6SM SCT150
     FM211800 23006KT P6SM BKN050
     FM212000 24006KT P6SM SCT050=



000
FTUS41 KLWX 201700 RRA
TAFMRB
TAF
KMRB 201742Z 2018/2118 18008KT P6SM SCT060
     FM210000 15004KT P6SM FEW250
     FM210600 00000KT 3SM BR FEW250
     FM210900 00000KT 2SM BR SCT250
     FM211300 00000KT 3SM BR SCT200
     FM211400 VRB03KT P6SM SCT200
     FM211600 24005KT P6SM BKN110=



000
FTUS41 KLWX 201700 RRA
TAFDCA
TAF
KDCA 201742Z 2018/2118 15007KT P6SM FEW060
     FM210000 VRB03KT P6SM FEW250
     FM210800 00000KT 5SM BR SCT250
     FM211300 VRB03KT P6SM SCT200=



000
FTUS41 KLWX 201700 RRA
TAFIAD
TAF
KIAD 201742Z 2018/2124 16007KT P6SM FEW060
     FM210000 VRB03KT P6SM FEW250
     FM210700 00000KT 3SM BR SCT250
     FM211400 VRB03KT P6SM SCT200
     FM211800 24006KT P6SM BKN050=



000
FTUS41 KLWX 201700 RRA
TAFBWI
TAF
KBWI 201742Z 2018/2124 15008KT P6SM SCT040
     FM210000 VRB03KT P6SM SCT250
     FM210800 00000KT 3SM BR BKN250
     FM211400 00000KT P6SM SCT150
     FM211800 23006KT P6SM BKN050
     FM212000 24006KT P6SM SCT050=



000
FTUS41 KLWX 201700 RRA
TAFMTN
TAF
KMTN 201742Z 2018/2118 15010KT P6SM SCT040
     FM202300 14006KT P6SM SCT040
     FM210000 14005KT P6SM SCT250
     FM210500 00000KT P6SM BKN250
     FM210800 00000KT 3SM BR BKN250
     FM211400 VRB03KT P6SM SCT130=



000
FTUS41 KLWX 201700 RRA
TAFCHO
TAF
KCHO 201742Z 2018/2118 17004KT P6SM FEW050
     FM202300 00000KT P6SM SKC
     FM210600 00000KT 3SM BR FEW200
     FM210700 00000KT 2SM BR FEW200
     FM211300 00000KT 5SM BR FEW200
     FM211400 00000KT P6SM FEW200=



000
FTUS41 KLWX 201500 AAA
TAFBWI
TAF AMD
KBWI 201506Z 2015/2118 16004KT P6SM SCT035
     FM201600 17007KT P6SM SCT050
     FM210400 VRB03KT P6SM SCT130
     FM211700 20007KT P6SM SCT250=



000
FTUS41 KLWX 201500 AAA
TAFDCA
TAF AMD
KDCA 201506Z 2015/2112 16006KT P6SM SCT035
     FM201800 16006KT P6SM SCT050
     FM210700 00000KT P6SM SCT250=



000
FTUS41 KLWX 201500 AAA
TAFIAD
TAF AMD
KIAD 201506Z 2015/2118 18006KT P6SM FEW040
     FM210800 00000KT 5SM BR SCT250
     FM211300 21006KT P6SM SCT250=



000
FTUS41 KLWX 201100
TAFCHO
TAF
KCHO 201137Z 2012/2112 00000KT 1SM BR BKN003
     FM201210 17003KT 3SM BR FEW003
     FM201300 18005KT P6SM FEW050
     FM210800 00000KT 3SM BR SCT250=



000
FTUS41 KLWX 201100
TAFDCA
TAF
KDCA 201137Z 2012/2112 VRB03KT P6SM FEW090
     FM201500 16006KT P6SM FEW050
     FM201800 16006KT P6SM SCT250
     FM210700 00000KT P6SM SCT250=



000
FTUS41 KLWX 201100
TAFMRB
TAF
KMRB 201137Z 2012/2112 VRB03KT P6SM FEW050
     FM201500 18006KT P6SM SCT050
     FM201700 18008KT P6SM FEW250
     FM210000 16004KT P6SM SCT250
     FM210300 00000KT P6SM SCT250=



000
FTUS41 KLWX 201100
TAFMTN
TAF
KMTN 201137Z 2012/2112 VRB03KT P6SM FEW090
     FM201500 15007KT P6SM FEW090
     FM210300 VRB03KT P6SM SCT250=



000
FTUS41 KLWX 201100
TAFIAD
TAF
KIAD 201137Z 2012/2118 VRB03KT P6SM FEW090
     FM201500 18006KT P6SM FEW090
     FM210700 00000KT 5SM BR SCT250
     FM211300 21006KT P6SM SCT250=



000
FTUS41 KLWX 201100
TAFBWI
TAF
KBWI 201137Z 2012/2118 00000KT 5SM BR FEW050
     FM201230 16004KT P6SM FEW050
     FM201600 17007KT P6SM SCT050
     FM210400 VRB03KT P6SM SCT130
     FM211700 20007KT P6SM SCT250=



000
FTUS41 KLWX 201000 AAB
TAFMRB
TAF AMD
KMRB 201033Z 2011/2106 14004KT 6SM BR SKC
     FM201700 18008KT P6SM SCT250
     FM210300 00000KT P6SM SCT250=



000
FTUS41 KLWX 201000 AAB
TAFCHO
TAF AMD
KCHO 201007Z 2010/2106 00000KT 1 1/2SM BR SCT050
     FM201200 00000KT P6SM BKN050 OVC060
     FM201400 00000KT P6SM SCT250=



000
FTUS41 KLWX 200800 AAB
TAFBWI
TAF AMD
KBWI 200837Z 2009/2112 09003KT P6SM SCT028 BKN070
     FM201400 16004KT P6SM SCT030
     FM201800 16008KT P6SM FEW060
     FM210100 15004KT P6SM SCT090
     FM210600 00000KT P6SM SCT250=



000
FTUS41 KLWX 200800 AAB
TAFDCA
TAF AMD
KDCA 200836Z 2009/2106 07004KT P6SM SCT070
     FM201600 17006KT P6SM SCT080=



000
FTUS41 KLWX 200800 AAB
TAFIAD
TAF AMD
KIAD 200835Z 2009/2112 14006KT P6SM BKN080
     FM201500 18006KT P6SM SCT060
     FM210700 00000KT P6SM SCT250=



000
FTUS41 KLWX 200700 AAA
TAFDCA
TAF AMD
KDCA 200754Z 2008/2106 00000KT P6SM FEW020 SCT080
     FM201600 17006KT P6SM SCT080=



000
FTUS41 KLWX 200700 AAA
TAFIAD
TAF AMD
KIAD 200754Z 2008/2112 14007KT P6SM BKN060
     FM201500 18006KT P6SM SCT060
     FM210700 00000KT P6SM SCT250=



000
FTUS41 KLWX 200700 AAA
TAFBWI
TAF AMD
KBWI 200754Z 2008/2112 00000KT P6SM SCT029 BKN070
     FM201400 16004KT P6SM SCT030
     FM201800 16008KT P6SM FEW060
     FM210100 15004KT P6SM SCT090
     FM210600 00000KT P6SM SCT250=



000
FTUS41 KLWX 200700 AAA
TAFMRB
TAF AMD
KMRB 200754Z 2008/2106 17005KT P6SM BKN024 OVC070
     FM201000 00000KT P6SM OVC015
     FM201300 VRB03KT P6SM BKN025
     FM201500 18006KT P6SM BKN050
     FM201700 18008KT P6SM SCT250
     FM210300 00000KT P6SM SCT250=



000
FTUS41 KLWX 200700 AAA
TAFMTN
TAF AMD
KMTN 200754Z 2008/2106 NIL=



000
FTUS41 KLWX 200700 AAA
TAFCHO
TAF AMD
KCHO 200754Z 2008/2106 00000KT P6SM BKN050 OVC060
     FM201400 00000KT P6SM SCT250=



000
FTUS41 KLWX 200500
TAFIAD
TAF
KIAD 200532Z 2006/2112 15004KT 5SM BR SCT025 BKN060
     FM200800 00000KT 5SM BR BKN025
     FM201000 00000KT 5SM BR SCT008 BKN015
     FM201300 VRB03KT P6SM SCT008 BKN025
     FM201500 18006KT P6SM SCT050
     FM210300 VRB03KT P6SM FEW250=



000
FTUS41 KLWX 200500
TAFBWI
TAF
KBWI 200532Z 2006/2112 08006KT P6SM FEW015 BKN030
     FM200900 00000KT P6SM SCT008 BKN015
     FM201400 16004KT P6SM FEW008 SCT015
     FM201800 16008KT P6SM FEW050
     FM210100 15004KT P6SM SCT090
     FM210600 00000KT P6SM SCT250=



000
FTUS41 KLWX 200500
TAFMRB
TAF
KMRB 200532Z 2006/2106 15004KT 6SM BR OVC020
     FM200800 VRB03KT 2SM BR SCT008 OVC020
     FM201300 VRB03KT P6SM SCT008 BKN020
     FM201500 18006KT P6SM BKN050
     FM201700 18008KT P6SM SCT050
     FM210300 00000KT P6SM SCT250=



000
FTUS41 KLWX 200500
TAFMTN
TAF
KMTN 200532Z 2006/2106 NIL=



000
FTUS41 KLWX 200500
TAFCHO
TAF
KCHO 200532Z 2006/2106 00000KT 6SM BR SCT050 BKN070
     FM200900 00000KT 2SM BR BKN025
     FM201100 00000KT 2SM BR BKN015
     FM201300 00000KT P6SM SCT015 BKN050
     FM201500 VRB03KT P6SM SCT250=



000
FTUS41 KLWX 200500
TAFDCA
TAF
KDCA 200532Z 2006/2106 VRB03KT P6SM SCT025 SCT090
     FM201100 VRB03KT P6SM FEW008 SCT025
     FM201800 16006KT P6SM FEW250=



000
FTUS41 KLWX 192300
TAFBWI
TAF
KBWI 192330Z 2000/2106 11009KT P6SM SCT035 BKN100
     FM200600 13004KT P6SM SCT015 SCT030
     FM200900 00000KT P6SM SCT008 BKN020
     FM201400 17006KT P6SM SCT012 BKN040=



000
FTUS41 KLWX 192300
TAFMRB
TAF
KMRB 192330Z 2000/2024 13003KT P6SM BKN050 OVC090
     FM200600 15004KT 5SM BR SCT025 BKN035
     FM200800 VRB03KT 2SM BR BKN015 BKN025
     FM201200 00000KT 6SM BR SCT008 BKN010
     FM201400 18005KT P6SM SCT040=



000
FTUS41 KLWX 192300
TAFCHO
TAF
KCHO 192330Z 2000/2024 00000KT P6SM FEW045 OVC070
     FM200600 00000KT 5SM BR SCT025 BKN040
     FM200800 00000KT 2SM BR BKN025
     FM201200 00000KT 6SM BR SCT008 BKN015
     FM201500 VRB03KT P6SM SCT070=



000
FTUS41 KLWX 192300
TAFIAD
TAF
KIAD 192330Z 2000/2106 13005KT P6SM BKN070 BKN100
     FM200600 15004KT 5SM BR SCT025 BKN045
     FM200800 00000KT 5SM BR SCT025 BKN035
     FM201300 VRB03KT P6SM SCT008 BKN040
     FM201700 17007KT P6SM SCT050=



000
FTUS41 KLWX 192300
TAFDCA
TAF
KDCA 192330Z 2000/2024 11010KT P6SM FEW050 SCT100
     FM200500 13004KT P6SM SCT070
     FM201000 VRB04KT P6SM FEW025 SCT050
     FM201500 18008KT P6SM BKN050
     FM202000 15006KT P6SM SCT050=



000
FTUS41 KLWX 192300
TAFMTN
TAF
KMTN 192330Z 2000/2024 12008KT P6SM BKN110
     FM200600 12004KT P6SM SCT025 BKN060
     FM201100 00000KT P6SM SCT009 BKN060
     FM201300 VRB03KT P6SM SCT012 BKN050
     FM201600 17007KT P6SM BKN040
      AMD NOT SKED 2002/2012=



000
FTUS41 KLWX 192100 AAA
TAFDCA
TAF AMD
KDCA 192105Z 1921/2018 10007KT P6SM FEW060 BKN080
     FM200600 VRB03KT P6SM SCT008 BKN025
     FM201600 17006KT P6SM SCT050=



000
FTUS41 KLWX 192100 AAA
TAFIAD
TAF AMD
KIAD 192105Z 1921/2024 14006KT P6SM FEW060 BKN090
     FM200600 VRB03KT 5SM BR SCT008 BKN015
     FM201200 VRB03KT P6SM SCT008 BKN015
     FM201600 18006KT P6SM SCT050=



000
FTUS41 KLWX 192100 AAA
TAFBWI
TAF AMD
KBWI 192105Z 1921/2024 08010KT P6SM FEW035 BKN080
     FM200600 VRB04KT P6SM SCT008 BKN025
     FM201500 17006KT P6SM BKN050
     FM201600 17006KT P6SM SCT050=



000
FTUS41 KLWX 191700
TAFMRB
TAF
KMRB 191723Z 1918/2018 08005KT P6SM BKN050
     FM192100 12005KT P6SM BKN050
     FM200600 VRB03KT 5SM BR SCT008 OVC015
     FM200900 VRB03KT 2SM BR BKN008 OVC015
     FM201300 VRB03KT P6SM SCT008 OVC015
     FM201600 18006KT P6SM SCT050=



000
FTUS41 KLWX 191700
TAFCHO
TAF
KCHO 191723Z 1918/2018 10004KT P6SM BKN015 OVC050
     FM192300 VRB03KT P6SM BKN015 OVC050
     FM200300 00000KT 5SM BR BKN008 BKN050
     FM200800 00000KT 2SM BR BKN003 BKN050
     FM201300 VRB03KT 6SM BR BKN008 BKN050
     FM201600 17004KT P6SM BKN050=



000
FTUS41 KLWX 191700
TAFBWI
TAF
KBWI 191723Z 1918/2024 08007KT P6SM SCT025 BKN050
     FM192000 11008KT P6SM BKN050
     FM200600 VRB04KT P6SM SCT008 BKN025
     FM201500 17006KT P6SM BKN050
     FM201600 17006KT P6SM SCT050=



000
FTUS41 KLWX 191700
TAFMTN
TAF
KMTN 191723Z 1918/2018 06008KT P6SM SCT025 BKN050
     FM192000 11005KT P6SM BKN050
     FM200600 VRB03KT P6SM SCT008 BKN025
     FM201600 17007KT P6SM SCT050=



000
FTUS41 KLWX 191700
TAFDCA
TAF
KDCA 191723Z 1918/2018 09006KT P6SM BKN050
     FM192100 12006KT P6SM BKN050
     FM200600 VRB03KT P6SM SCT008 BKN025
     FM201600 17006KT P6SM SCT050=



000
FTUS41 KLWX 191700
TAFIAD
TAF
KIAD 191723Z 1918/2024 09005KT P6SM BKN050
     FM192200 13005KT P6SM BKN050
     FM200600 VRB03KT 5SM BR SCT008 BKN015
     FM201200 VRB03KT P6SM SCT008 BKN015
     FM201600 18006KT P6SM SCT050=



000
FTUS41 KLWX 191400 AAA
TAFIAD
TAF AMD
KIAD 191459Z 1915/2018 07006KT P6SM BKN080
     FM191700 10005KT P6SM BKN080
     FM192000 12006KT P6SM BKN050
     FM200300 13005KT P6SM BKN025
     FM200900 00000KT 5SM BR SCT008 BKN015
     FM201400 16004KT P6SM SCT020=



000
FTUS41 KLWX 191400 AAA
TAFBWI
TAF AMD
KBWI 191459Z 1915/2018 08008KT P6SM SCT050
     FM191800 11006KT P6SM BKN050
     FM200900 VRB03KT P6SM BKN030
     FM201100 VRB03KT P6SM SCT030
     FM201600 16007KT P6SM SCT080=



000
FTUS41 KLWX 191400 AAA
TAFDCA
TAF AMD
KDCA 191459Z 1915/2012 08006KT P6SM BKN090
     FM191800 10006KT P6SM BKN050
     FM192100 13007KT P6SM BKN050
     FM200600 VRB03KT P6SM BKN050
     FM200900 00000KT P6SM BKN025=



000
FTUS41 KLWX 191200 AAA
TAFCHO
TAF AMD
KCHO 191201Z 1912/2012 02004KT P6SM BKN008 BKN050
     FM191300 05004KT P6SM BKN025 BKN050
     FM192000 11004KT P6SM BKN025
     FM200200 00000KT P6SM BKN015
     FM200900 00000KT 5SM BR SCT008 BKN015=



000
FTUS41 KLWX 191100
TAFDCA
TAF
KDCA 191120Z 1912/2012 04006KT P6SM SCT050 BKN100
     FM191800 10006KT P6SM SCT050
     FM192100 11007KT P6SM BKN050
     FM200600 VRB03KT P6SM BKN050
     FM200900 00000KT P6SM BKN025=



000
FTUS41 KLWX 191100
TAFMTN
TAF
KMTN 191120Z 1912/2012 03007KT P6SM SCT050
     FM200200 11008KT P6SM BKN050
     FM200900 VRB03KT P6SM BKN030
     FM201000 VRB03KT P6SM SCT030=



000
FTUS41 KLWX 191100
TAFBWI
TAF
KBWI 191120Z 1912/2018 04006KT P6SM SCT050
     FM192300 11008KT P6SM BKN050
     FM200900 VRB03KT P6SM BKN030
     FM201100 VRB03KT P6SM SCT030
     FM201600 16007KT P6SM SCT080=



000
FTUS41 KLWX 191100
TAFCHO
TAF
KCHO 191120Z 1912/2012 02004KT P6SM SCT025 BKN050
     FM191500 05004KT P6SM BKN025 BKN050
     FM192000 11004KT P6SM BKN025
     FM200200 00000KT P6SM BKN015
     FM200900 00000KT 5SM BR SCT008 BKN015=



000
FTUS41 KLWX 191100
TAFIAD
TAF
KIAD 191120Z 1912/2018 03005KT P6SM SCT050 BKN100
     FM191700 09005KT P6SM SCT050
     FM192200 12006KT P6SM BKN050
     FM200300 13005KT P6SM BKN025
     FM200900 00000KT 5SM BR SCT008 BKN015
     FM201400 16004KT P6SM SCT020=



000
FTUS41 KLWX 191100
TAFMRB
TAF
KMRB 191120Z 1912/2012 02004KT P6SM SCT050
     FM191700 11005KT P6SM SCT050
     FM192200 13007KT P6SM BKN050
     FM200300 14005KT P6SM BKN030
     FM200900 00000KT 5SM BR BKN015=



000
FTUS41 KLWX 190900 AAA
TAFIAD
TAF AMD
KIAD 190910Z 1909/2012 01005KT P6SM SCT050
     FM191100 03005KT P6SM SCT050
     FM191700 09007KT P6SM SCT050
     FM192200 12007KT P6SM FEW025 BKN050
     FM200900 00000KT P6SM SCT025 BKN050=



000
FTUS41 KLWX 190900 AAA
TAFBWI
TAF AMD
KBWI 190910Z 1909/2012 VRB03KT P6SM SCT050
     FM191300 04007KT P6SM SCT050
     FM192300 11008KT P6SM SCT025 BKN050
     FM200600 12004KT P6SM SCT025 BKN050
     FM201100 VRB03KT P6SM SCT050=



000
FTUS41 KLWX 190900 AAA
TAFDCA
TAF AMD
KDCA 190909Z 1909/2006 02007KT P6SM SCT050
     FM191100 03007KT P6SM SCT050
     FM191700 09008KT P6SM SCT050
     FM192100 11010KT P6SM FEW025 BKN050=



000
FTUS41 KLWX 190500
TAFMTN
TAF
KMTN 190535Z 1906/2006 NIL=



000
FTUS41 KLWX 190500
TAFDCA
TAF
KDCA 190535Z 1906/2006 VRB04KT P6SM SCT050
     FM190800 02005KT P6SM BKN050
     FM191100 03006KT P6SM SCT050
     FM191700 09006KT P6SM SCT050
     FM192100 11007KT P6SM FEW025 BKN050=



000
FTUS41 KLWX 190500
TAFCHO
TAF
KCHO 190535Z 1906/2006 VRB03KT P6SM BKN050
     FM190900 00000KT 5SM BR BKN015 BKN050
     FM191500 05004KT P6SM BKN025 BKN050
     FM192000 11004KT P6SM BKN025
     FM200200 00000KT P6SM BKN025=



000
FTUS41 KLWX 190500
TAFBWI
TAF
KBWI 190535Z 1906/2012 VRB03KT P6SM SCT050
     FM191300 04007KT P6SM SCT050
     FM192300 11008KT P6SM SCT025 BKN050
     FM200600 12004KT P6SM SCT025 BKN050
     FM201100 VRB03KT P6SM SCT050=



000
FTUS41 KLWX 190500
TAFMRB
TAF
KMRB 190535Z 1906/2006 36004KT P6SM SCT050
     FM190800 01004KT 5SM BR SCT050
     FM191200 02004KT P6SM SCT050
     FM191700 11005KT P6SM SCT050
     FM192200 13007KT P6SM BKN050=



000
FTUS41 KLWX 190500
TAFIAD
TAF
KIAD 190535Z 1906/2012 VRB03KT P6SM SCT050
     FM190800 01005KT P6SM BKN050
     FM191100 03005KT P6SM SCT050
     FM191700 09005KT P6SM SCT050
     FM192200 12006KT P6SM FEW025 BKN050
     FM200900 00000KT P6SM SCT025 BKN050=



000
FTUS41 KLWX 182300
TAFDCA
TAF
KDCA 182321Z 1900/1924 04009KT P6SM FEW050 SCT080
     FM190400 01006KT P6SM SCT050 SCT090
     FM191500 05005KT P6SM SCT050
     FM192000 11007KT P6SM BKN050=



000
FTUS41 KLWX 182300
TAFCHO
TAF
KCHO 182321Z 1900/1924 00000KT P6SM FEW040 OVC090
     FM190900 VRB03KT P6SM BKN015 BKN050
     FM191400 04004KT P6SM BKN035 BKN050
     FM192000 10004KT P6SM FEW020 BKN040=



000
FTUS41 KLWX 182300
TAFMRB
TAF
KMRB 182321Z 1900/1924 03003KT P6SM SKC
     FM190800 01005KT 5SM BR FEW050
     FM191200 VRB03KT P6SM SCT050
     FM192100 13006KT P6SM BKN050=



000
FTUS41 KLWX 182300
TAFMTN
TAF
KMTN 182321Z 1900/1924 VRB03KT P6SM SCT080
     FM190400 02006KT P6SM SCT050
     FM191700 07007KT P6SM SCT050
     FM192300 12008KT P6SM BKN050
      AMD NOT SKED 1902/1912=



000
FTUS41 KLWX 182300
TAFIAD
TAF
KIAD 182321Z 1900/2006 04006KT P6SM FEW045 SCT100
     FM191600 09005KT P6SM BKN050=



000
FTUS41 KLWX 182300
TAFBWI
TAF
KBWI 182321Z 1900/2006 13003KT P6SM SCT045 SCT080
     FM190400 02006KT P6SM FEW050 SCT100
     FM191600 08007KT P6SM SCT050
     FM192200 11007KT P6SM BKN050=



000
FTUS41 KLWX 182100 AAA
TAFDCA
TAF AMD
KDCA 182109Z 1821/1918 36009KT P6SM FEW060 SCT100
     FM182300 VRB03KT P6SM SCT050
     FM191400 05005KT P6SM BKN050=



000
FTUS41 KLWX 182100 AAA
TAFIAD
TAF AMD
KIAD 182109Z 1821/1924 31005KT P6SM FEW045 SCT100
     FM182300 VRB03KT P6SM SCT050
     FM191300 03005KT P6SM BKN050
     FM191800 09005KT P6SM BKN050=



000
FTUS41 KLWX 182100 AAA
TAFBWI
TAF AMD
KBWI 182109Z 1821/1924 10009KT P6SM FEW025 SCT045
     FM182300 VRB03KT P6SM SCT050
     FM191000 03006KT P6SM SCT050
     FM191700 08007KT P6SM BKN050=



000
FTUS41 KLWX 181700
TAFMTN
TAF
KMTN 181720Z 1818/1918 13005KT P6SM BKN050
     FM182300 VRB03KT P6SM SCT050
     FM190800 01006KT P6SM SCT050
     FM191700 07007KT P6SM SCT050=



000
FTUS41 KLWX 181700
TAFBWI
TAF
KBWI 181720Z 1818/1924 VRB03KT P6SM BKN050
     FM182300 VRB03KT P6SM SCT050
     FM191000 03006KT P6SM SCT050
     FM191700 08007KT P6SM BKN050=



000
FTUS41 KLWX 181700
TAFDCA
TAF
KDCA 181720Z 1818/1918 18004KT P6SM BKN050
     FM182300 VRB03KT P6SM SCT050
     FM191400 05005KT P6SM BKN050=



000
FTUS41 KLWX 181700
TAFIAD
TAF
KIAD 181720Z 1818/1924 VRB03KT P6SM BKN050
     FM182300 VRB03KT P6SM SCT050
     FM191300 03005KT P6SM BKN050
     FM191800 09005KT P6SM BKN050=



000
FTUS41 KLWX 181700
TAFMRB
TAF
KMRB 181720Z 1818/1918 35004KT P6SM BKN050
     FM182300 VRB03KT P6SM SCT050
     FM190800 VRB03KT 5SM BR BKN050
     FM191200 VRB03KT P6SM BKN050
     FM191500 05005KT P6SM BKN050=



000
FTUS41 KLWX 181700
TAFCHO
TAF
KCHO 181720Z 1818/1918 VRB03KT P6SM BKN050
     FM190600 00000KT 5SM BR BKN015 BKN050
     FM191200 04004KT P6SM BKN015 BKN050=



000
FTUS41 KLWX 181500 AAA
TAFIAD
TAF AMD
KIAD 181503Z 1815/1918 VRB03KT P6SM FEW035 BKN050
     FM182100 34004KT P6SM FEW035 SCT050
     FM191100 02006KT P6SM SCT025 BKN060
     FM191700 09005KT P6SM BKN060=



000
FTUS41 KLWX 181500 AAA
TAFDCA
TAF AMD
KDCA 181503Z 1815/1912 VRB03KT P6SM SCT035 BKN050
     FM182300 VRB03KT P6SM FEW035 SCT050
     FM191000 03006KT P6SM SCT090=



000
FTUS41 KLWX 181500 AAA
TAFBWI
TAF AMD
KBWI 181503Z 1815/1918 VRB03KT P6SM SCT035 BKN050
     FM182200 VRB03KT P6SM FEW035 SCT050
     FM190900 03006KT P6SM SCT090
     FM191700 09007KT P6SM SCT090=



000
FTUS41 KLWX 181100
TAFMRB
TAF
KMRB 181125Z 1812/1912 VRB03KT P6SM SCT035 BKN050
     FM181600 35004KT P6SM FEW035 SCT050
     FM191100 02004KT P6SM BKN050=



000
FTUS41 KLWX 181100
TAFCHO
TAF
KCHO 181125Z 1812/1912 VRB03KT P6SM SCT025 BKN050
     FM181300 VRB03KT P6SM BKN050
     FM190600 00000KT P6SM BKN025=



000
FTUS41 KLWX 181100
TAFMTN
TAF
KMTN 181125Z 1812/1912 VRB03KT P6SM SCT035 BKN050
     FM181600 15005KT P6SM FEW035 SCT050
     FM182300 VRB03KT P6SM FEW035 SCT050
     FM190700 02006KT P6SM SCT090=



000
FTUS41 KLWX 181100
TAFBWI
TAF
KBWI 181125Z 1812/1918 VRB03KT P6SM SCT035 BKN050
     FM182200 VRB03KT P6SM FEW035 SCT050
     FM190900 03006KT P6SM SCT090
     FM191700 09007KT P6SM SCT090=



000
FTUS41 KLWX 181100
TAFIAD
TAF
KIAD 181125Z 1812/1918 VRB03KT P6SM FEW035 BKN050
     FM182100 34004KT P6SM FEW035 SCT050
     FM191100 02006KT P6SM SCT025 BKN060
     FM191700 09005KT P6SM BKN060=



000
FTUS41 KLWX 181100
TAFDCA
TAF
KDCA 181125Z 1812/1912 VRB03KT P6SM SCT035 BKN050
     FM182300 VRB03KT P6SM FEW035 SCT050
     FM191000 03006KT P6SM SCT090=



000
FTUS41 KLWX 180800 AAA
TAFBWI
TAF AMD
KBWI 180858Z 1809/1912 VRB04KT P6SM BKN050
     FM182200 01004KT P6SM FEW035 SCT050
     FM190900 03006KT P6SM SCT090=



000
FTUS41 KLWX 180800 AAA
TAFDCA
TAF AMD
KDCA 180857Z 1809/1906 VRB04KT P6SM BKN050
     FM182300 01006KT P6SM FEW035 SCT050=



000
FTUS41 KLWX 180800 AAA
TAFIAD
TAF AMD
KIAD 180856Z 1809/1912 VRB04KT P6SM BKN045
     FM182100 34005KT P6SM FEW035 SCT050
     FM191100 02006KT P6SM BKN060=



000
FTUS41 KLWX 180500
TAFMRB
TAF
KMRB 180533Z 1806/1906 00000KT 5SM BR SCT050
     FM180900 00000KT 5SM BR BKN045
     FM181300 00000KT P6SM SCT035 BKN045
     FM181600 35004KT P6SM FEW035 SCT050=



000
FTUS41 KLWX 180500
TAFCHO
TAF
KCHO 180533Z 1806/1906 00000KT 5SM BR SCT050
     FM180800 00000KT 2SM BR SCT045
     FM181200 00000KT P6SM SCT035 BKN045=



000
FTUS41 KLWX 180500
TAFMTN
TAF
KMTN 180533Z 1806/1906 NIL=



000
FTUS41 KLWX 180500
TAFDCA
TAF
KDCA 180533Z 1806/1906 VRB03KT P6SM SCT050
     FM181000 VRB04KT P6SM BKN050
     FM182300 01006KT P6SM FEW035 SCT050=



000
FTUS41 KLWX 180500
TAFIAD
TAF
KIAD 180533Z 1806/1912 00000KT P6SM SCT045
     FM180900 VRB04KT P6SM BKN045
     FM182100 34005KT P6SM FEW035 SCT050
     FM191100 02006KT P6SM BKN060=



000
FTUS41 KLWX 180500
TAFBWI
TAF
KBWI 180533Z 1806/1912 VRB03KT P6SM FEW060
     FM181000 VRB04KT P6SM BKN050
     FM182200 01004KT P6SM FEW035 SCT050
     FM190900 03006KT P6SM SCT090=



000
FTUS41 KLWX 180000 AAA
TAFDCA
TAF AMD
KDCA 180043Z 1801/1824 10006KT P6SM SKC
     FM180300 VRB03KT P6SM BKN110
     FM181900 21004KT P6SM SCT035 BKN070=



000
FTUS41 KLWX 172300
TAFBWI
TAF
KBWI 172333Z 1800/1906 00000KT P6SM FEW070 SCT250
     FM180700 00000KT P6SM BKN130
     FM181900 19004KT P6SM SCT040 BKN080=



000
FTUS41 KLWX 172300
TAFCHO
TAF
KCHO 172333Z 1800/1824 00000KT P6SM OVC080
     FM180800 00000KT 5SM BR BKN070
     FM181200 VRB03KT P6SM SCT040 BKN060
     FM181700 34004KT P6SM SCT020 BKN050=



000
FTUS41 KLWX 172300
TAFIAD
TAF
KIAD 172333Z 1800/1906 31003KT P6SM FEW070 SCT250
     FM180500 VRB03KT P6SM BKN110
     FM181900 34004KT P6SM SCT030 BKN070
     FM190000 VRB03KT P6SM FEW040 SCT100=



000
FTUS41 KLWX 172300
TAFMTN
TAF
KMTN 172333Z 1800/1824 15004KT P6SM SCT150
     FM181200 VRB04KT P6SM SCT070 BKN150
     FM181900 22004KT P6SM SCT040 BKN070
      AMD NOT SKED 1802/1812=



000
FTUS41 KLWX 172300
TAFMRB
TAF
KMRB 172333Z 1800/1824 09003KT P6SM FEW080
     FM180800 00000KT 5SM BR BKN080
     FM181200 VRB03KT P6SM SCT050 BKN070
     FM181700 31004KT P6SM SCT035 BKN120=



000
FTUS41 KLWX 172300
TAFDCA
TAF
KDCA 172333Z 1800/1824 09005KT P6SM FEW060 SCT250
     FM180700 VRB03KT P6SM BKN110
     FM181900 21004KT P6SM SCT035 BKN070=



    US Dept of Commerce
    National Oceanic and Atmospheric Administration
    National Weather Service
    1325 East West Highway
    Silver Spring, MD 20910
    Page Author: NWS Internet Services Team
Disclaimer
Information Quality
Credits
Glossary
Privacy Policy
Freedom of Information Act (FOIA)
About Us
Career Opportunities